createdAt,value
2018-07-28T00:02:55.117Z,8.03
2018-07-28T00:07:35.552Z,9.45
2018-07-28T00:12:15.424Z,8.30
2018-07-28T00:16:55.049Z,8.50
2018-07-28T00:21:35.164Z,7.92
2018-07-28T00:26:17.915Z,8.08
2018-07-28T00:30:57.613Z,9.00
2018-07-28T00:35:38.679Z,9.98
2018-07-28T00:40:18.507Z,9.10
2018-07-28T00:44:58.581Z,10.13
2018-07-28T00:49:38.522Z,9.58
2018-07-28T00:54:18.655Z,9.20
2018-07-28T00:58:59.123Z,9.50
2018-07-28T01:03:39.244Z,12.73
2018-07-28T01:08:20.607Z,9.35
2018-07-28T01:13:00.453Z,9.40
2018-07-28T01:17:40.656Z,9.48
2018-07-28T01:22:21.433Z,11.55
2018-07-28T01:27:01.957Z,9.50
2018-07-28T01:31:41.641Z,10.53
2018-07-28T01:36:22.000Z,9.08
2018-07-28T01:41:01.672Z,8.93
2018-07-28T01:45:41.714Z,10.05
2018-07-28T01:50:23.353Z,11.00
2018-07-28T01:55:04.028Z,11.12
2018-07-28T01:59:45.340Z,10.58
2018-07-28T02:04:25.171Z,8.68
2018-07-28T02:09:08.271Z,8.53
2018-07-28T02:13:48.546Z,8.05
2018-07-28T02:18:28.575Z,11.18
2018-07-28T02:23:08.888Z,9.05
2018-07-28T02:27:49.433Z,13.80
2018-07-28T02:32:30.100Z,9.28
2018-07-28T02:37:11.425Z,12.00
2018-07-28T02:41:51.372Z,8.45
2018-07-28T02:46:31.405Z,10.30
2018-07-28T02:51:11.873Z,12.23
2018-07-28T02:55:51.839Z,16.15
2018-07-28T03:00:32.284Z,13.70
2018-07-28T03:05:12.968Z,12.03
2018-07-28T03:09:53.201Z,8.70
2018-07-28T03:14:33.127Z,10.80
2018-07-28T03:19:13.176Z,11.60
2018-07-28T03:23:52.623Z,11.85
2018-07-28T03:28:33.207Z,9.00
2018-07-28T03:33:14.067Z,13.20
2018-07-28T03:37:53.876Z,9.80
2018-07-28T03:42:34.583Z,11.63
2018-07-28T03:47:15.124Z,13.43
2018-07-28T03:51:55.396Z,10.25
2018-07-28T03:56:35.650Z,10.48
2018-07-28T04:01:16.839Z,11.68
2018-07-28T04:05:57.455Z,12.43
2018-07-28T04:10:37.732Z,8.85
2018-07-28T04:15:18.163Z,9.75
2018-07-28T04:19:58.036Z,14.30
2018-07-28T04:24:38.644Z,13.30
2018-07-28T04:29:18.530Z,13.68
2018-07-28T04:33:58.551Z,8.98
2018-07-28T04:38:38.475Z,11.83
2018-07-28T04:43:18.159Z,10.53
2018-07-28T04:47:59.913Z,17.98
2018-07-28T04:52:39.556Z,10.75
2018-07-28T04:57:20.144Z,11.35
2018-07-28T05:02:00.739Z,17.35
2018-07-28T05:06:41.779Z,14.18
2018-07-28T05:11:21.708Z,14.60
2018-07-28T05:16:02.315Z,14.18
2018-07-28T05:20:42.399Z,11.00
2018-07-28T05:25:22.284Z,12.85
2018-07-28T05:30:02.029Z,13.00
2018-07-28T05:34:41.960Z,12.47
2018-07-28T05:39:21.604Z,14.00
2018-07-28T05:44:01.546Z,13.35
2018-07-28T05:48:41.866Z,11.70
2018-07-28T05:53:21.707Z,14.60
2018-07-28T05:58:01.663Z,14.93
2018-07-28T06:02:42.312Z,14.75
2018-07-28T06:07:23.455Z,14.58
2018-07-28T06:12:04.284Z,14.73
2018-07-28T06:16:44.072Z,15.43
2018-07-28T06:21:23.882Z,14.25
2018-07-28T06:26:04.634Z,15.98
2018-07-28T06:30:45.360Z,14.18
2018-07-28T06:35:25.345Z,18.30
2018-07-28T06:40:06.428Z,12.75
2018-07-28T06:44:46.135Z,13.68
2018-07-28T06:49:25.912Z,16.80
2018-07-28T06:54:05.883Z,19.35
2018-07-28T06:58:46.465Z,14.93
2018-07-28T07:03:27.120Z,14.70
2018-07-28T07:08:07.642Z,15.00
2018-07-28T07:12:47.638Z,17.77
2018-07-28T07:17:30.300Z,18.02
2018-07-28T07:22:10.239Z,14.00
2018-07-28T07:26:50.139Z,15.40
2018-07-28T07:31:31.739Z,16.60
2018-07-28T07:36:16.094Z,13.03
2018-07-28T07:40:56.134Z,10.50
2018-07-28T07:45:36.846Z,10.28
2018-07-28T07:50:18.179Z,12.10
2018-07-28T07:54:58.064Z,12.07
2018-07-28T07:59:38.311Z,10.75
2018-07-28T08:04:19.425Z,9.88
2018-07-28T08:08:59.406Z,5.90
2018-07-28T08:13:39.372Z,6.62
2018-07-28T08:18:19.201Z,5.00
2018-07-28T08:22:59.184Z,6.37
2018-07-28T08:27:39.555Z,5.37
2018-07-28T08:32:19.463Z,6.33
2018-07-28T08:37:00.452Z,5.78
2018-07-28T08:41:58.305Z,6.05
2018-07-28T08:46:38.459Z,5.83
2018-07-28T08:51:19.055Z,5.87
2018-07-28T08:55:59.264Z,8.90
2018-07-28T09:00:39.689Z,6.97
2018-07-28T09:05:19.858Z,5.35
2018-07-28T09:10:00.799Z,6.28
2018-07-28T09:14:48.131Z,6.80
2018-07-28T09:19:28.836Z,5.33
2018-07-28T09:24:09.709Z,5.30
2018-07-28T09:28:50.961Z,6.25
2018-07-28T09:33:30.895Z,6.15
2018-07-28T09:38:11.237Z,6.28
2018-07-28T09:42:51.508Z,6.55
2018-07-28T09:47:31.212Z,5.95
2018-07-28T09:52:12.175Z,6.70
2018-07-28T09:56:52.072Z,7.30
2018-07-28T10:01:32.464Z,5.97
2018-07-28T10:06:12.323Z,7.47
2018-07-28T10:10:52.551Z,5.87
2018-07-28T10:15:32.424Z,10.45
2018-07-28T10:20:12.408Z,5.08
2018-07-28T10:24:53.517Z,7.97
2018-07-28T10:29:33.392Z,6.35
2018-07-28T10:34:13.276Z,9.58
2018-07-28T10:38:53.243Z,7.75
2018-07-28T10:43:33.152Z,8.18
2018-07-28T10:48:13.033Z,8.30
2018-07-28T10:52:54.192Z,10.38
2018-07-28T10:57:34.863Z,6.58
2018-07-28T11:02:14.976Z,11.88
2018-07-28T11:06:55.283Z,7.28
2018-07-28T11:11:35.367Z,9.20
2018-07-28T11:16:15.839Z,7.72
2018-07-28T11:20:56.461Z,7.42
2018-07-28T11:25:36.603Z,6.22
2018-07-28T11:30:17.536Z,5.20
2018-07-28T11:35:08.501Z,5.45
2018-07-28T11:39:59.440Z,6.92
2018-07-28T11:44:44.563Z,5.72
2018-07-28T11:49:24.529Z,5.08
2018-07-28T11:54:04.524Z,5.87
2018-07-28T11:58:45.094Z,4.58
2018-07-28T12:03:25.986Z,6.17
2018-07-28T12:08:07.319Z,4.92
2018-07-28T12:12:50.344Z,4.37
2018-07-28T12:17:32.852Z,4.58
2018-07-28T12:22:15.176Z,4.72
2018-07-28T12:26:56.387Z,5.08
2018-07-28T12:31:36.481Z,4.78
2018-07-28T12:36:17.700Z,5.25
2018-07-28T12:40:58.369Z,4.70
2018-07-28T12:45:39.188Z,5.08
2018-07-28T12:50:19.536Z,5.37
2018-07-28T12:55:01.146Z,6.45
2018-07-28T12:59:40.794Z,5.37
2018-07-28T13:04:21.543Z,5.10
2018-07-28T13:09:01.480Z,5.78
2018-07-28T13:13:42.011Z,5.47
2018-07-28T13:18:21.967Z,6.10
2018-07-28T13:23:02.438Z,5.65
2018-07-28T13:27:42.836Z,5.25
2018-07-28T13:32:22.394Z,4.87
2018-07-28T13:37:03.177Z,5.45
2018-07-28T13:41:42.808Z,6.40
2018-07-28T13:46:23.178Z,6.00
2018-07-28T13:51:02.990Z,6.17
2018-07-28T13:55:42.880Z,6.05
2018-07-28T14:00:22.915Z,5.10
2018-07-28T14:05:03.585Z,4.53
2018-07-28T14:09:43.901Z,4.83
2018-07-28T14:14:23.994Z,4.53
2018-07-28T14:19:04.420Z,4.97
2018-07-28T14:23:44.904Z,8.20
2018-07-28T14:28:25.658Z,4.28
2018-07-28T14:33:05.568Z,4.15
2018-07-28T14:37:46.744Z,7.95
2018-07-28T14:42:26.684Z,4.35
2018-07-28T14:47:07.552Z,3.90
2018-07-28T14:51:47.703Z,3.85
2018-07-28T14:56:27.496Z,4.22
2018-07-28T15:01:07.581Z,5.67
2018-07-28T15:05:48.157Z,4.85
2018-07-28T15:10:28.108Z,4.22
2018-07-28T15:15:08.061Z,6.03
2018-07-28T15:19:48.012Z,3.92
2018-07-28T15:24:28.336Z,3.08
2018-07-28T15:29:08.388Z,3.52
2018-07-28T15:33:48.352Z,4.25
2018-07-28T15:38:28.284Z,8.00
2018-07-28T15:43:08.395Z,7.67
2018-07-28T15:47:49.533Z,5.17
2018-07-28T15:52:29.532Z,4.03
2018-07-28T15:57:09.823Z,3.90
2018-07-28T16:01:49.851Z,6.17
2018-07-28T16:06:31.433Z,6.10
2018-07-28T16:11:11.337Z,3.77
2018-07-28T16:15:50.835Z,4.25
2018-07-28T16:20:30.879Z,3.90
2018-07-28T16:25:11.711Z,8.10
2018-07-28T16:29:52.487Z,3.80
2018-07-28T16:34:32.803Z,3.67
2018-07-28T16:39:12.508Z,4.78
2018-07-28T16:43:52.509Z,4.50
2018-07-28T16:48:32.118Z,5.17
2018-07-28T16:53:12.778Z,6.25
2018-07-28T16:57:52.523Z,7.08
2018-07-28T17:02:32.988Z,4.67
2018-07-28T17:07:13.022Z,3.72
2018-07-28T17:11:53.140Z,4.22
2018-07-28T17:16:32.928Z,5.58
2018-07-28T17:21:13.740Z,3.00
2018-07-28T17:25:53.691Z,3.22
2018-07-28T17:30:33.671Z,6.40
2018-07-28T17:35:14.511Z,11.85
2018-07-28T17:39:55.638Z,7.95
2018-07-28T17:44:35.609Z,5.90
2018-07-28T17:49:15.671Z,5.60
2018-07-28T17:53:56.359Z,5.37
2018-07-28T17:58:36.213Z,9.20
2018-07-28T18:03:16.031Z,4.25
2018-07-28T18:07:55.907Z,3.10
2018-07-28T18:12:35.782Z,4.17
2018-07-28T18:17:16.640Z,5.83
2018-07-28T18:21:57.168Z,3.10
2018-07-28T18:26:37.177Z,4.05
2018-07-28T18:31:16.956Z,3.62
2018-07-28T18:35:56.830Z,3.67
2018-07-28T18:40:37.440Z,4.55
2018-07-28T18:45:17.632Z,7.37
2018-07-28T18:49:57.628Z,7.50
2018-07-28T18:54:37.228Z,8.15
2018-07-28T18:59:18.124Z,5.30
2018-07-28T19:04:00.020Z,4.72
2018-07-28T19:08:39.827Z,3.98
2018-07-28T19:13:24.925Z,4.33
2018-07-28T19:18:10.355Z,5.50
2018-07-28T19:22:56.120Z,4.92
2018-07-28T19:27:35.955Z,5.60
2018-07-28T19:32:17.187Z,5.70
2018-07-28T19:37:03.176Z,6.05
2018-07-28T19:41:48.452Z,6.03
2018-07-28T19:46:28.429Z,4.70
2018-07-28T19:51:08.585Z,3.55
2018-07-28T19:55:49.388Z,7.17
2018-07-28T20:00:29.147Z,4.30
2018-07-28T20:05:08.960Z,3.70
2018-07-28T20:09:49.800Z,4.42
2018-07-28T20:14:29.868Z,3.75
2018-07-28T20:19:09.534Z,5.22
2018-07-28T20:23:51.176Z,8.23
2018-07-28T20:28:31.286Z,5.70
2018-07-28T20:33:12.332Z,4.55
2018-07-28T20:37:52.207Z,3.62
2018-07-28T20:42:33.180Z,4.25
2018-07-28T20:47:13.776Z,4.17
2018-07-28T20:51:53.576Z,5.10
2018-07-28T20:56:33.540Z,5.28
2018-07-28T21:01:14.540Z,5.33
2018-07-28T21:05:55.096Z,3.87
2018-07-28T21:10:35.079Z,4.72
2018-07-28T21:15:15.652Z,4.00
2018-07-28T21:19:56.153Z,5.20
2018-07-28T21:24:37.269Z,4.53
2018-07-28T21:29:18.484Z,6.15
2018-07-28T21:33:58.352Z,5.40
2018-07-28T21:38:39.564Z,4.47
2018-07-28T21:43:19.924Z,3.95
2018-07-28T21:48:00.428Z,4.87
2018-07-28T21:52:41.524Z,5.83
2018-07-28T21:57:22.639Z,6.05
2018-07-28T22:02:02.528Z,4.08
2018-07-28T22:06:42.555Z,5.65
2018-07-28T22:11:22.894Z,5.15
2018-07-28T22:16:04.509Z,5.42
2018-07-28T22:20:44.768Z,5.40
2018-07-28T22:25:24.728Z,4.80
2018-07-28T22:30:05.084Z,5.83
2018-07-28T22:34:45.588Z,4.90
2018-07-28T22:39:25.452Z,9.75
2018-07-28T22:44:06.655Z,4.47
2018-07-28T22:48:47.190Z,5.85
2018-07-28T22:53:26.964Z,4.37
2018-07-28T22:58:06.911Z,6.35
2018-07-28T23:02:47.851Z,7.08
2018-07-28T23:07:29.019Z,5.92
2018-07-28T23:12:09.004Z,7.25
2018-07-28T23:16:48.892Z,6.83
2018-07-28T23:21:29.723Z,6.33
2018-07-28T23:26:11.083Z,4.53
2018-07-28T23:30:51.824Z,4.55
2018-07-28T23:35:32.195Z,5.20
2018-07-28T23:40:12.075Z,3.70
2018-07-28T23:44:53.067Z,3.83
2018-07-28T23:49:33.119Z,4.90
2018-07-28T23:54:13.723Z,4.10
2018-07-28T23:58:54.882Z,6.83
